Pomona Park, Florida
Current Conditions -  °F | °C
As of 2:15 PM on Saturday 20 Dec 2014 (Local Time) from K28J Reporting Station
Broken Clouds Broken Clouds  
Wind Chill: 73°   Ceiling: 9000
Heat Index: 73°   Visibility: 10mi
Dew Point: 59°   Wind: 0mph
Humidity: 61%   Direction: NA
Pressure: 30.06"   Gusts: NA
Location:  29.5°N, 81.59°W
Report Text: K28J 201915Z AUTO 00000KT 10SM FEW034 BKN090 23/15 A3006 RMK AO2
Loading
Personal Weather Stations






























Interactive Weather Map New forecast layout! Learn more

10-Day Weather Forecast

Advertisements
Track Severe Weather on mobile